Time;durP1;ratioP1;P1;durP2;ratioP2;P2;SDS_P1;SDS_P2;PMS_P1;PMS_P2;Temp;Humidity;BMP_temperature;BMP_pressure;BME280_temperature;BME280_humidity;BME280_pressure;Samples;Min_cycle;Max_cycle;Signal;HPM_P1;HPM_P2
2024/01/04 00:00:25;;;;;;;4.57;1.13;;;;;;;7.83;79.29;98519.72;6270605;22;20016;-67
2024/01/04 00:02:52;;;;;;;6.03;1.25;;;;;;;7.85;78.93;98520.41;6271616;22;20016;-67
2024/01/04 00:05:19;;;;;;;2.67;1.17;;;;;;;7.81;79.92;98524.44;6270138;22;20548;-67
2024/01/04 00:07:46;;;;;;;5.18;1.10;;;;;;;7.94;79.07;98527.47;6271152;22;20027;-67
2024/01/04 00:10:14;;;;;;;6.30;1.58;;;;;;;7.87;79.60;98525.63;6269984;22;20016;-67
2024/01/04 00:12:41;;;;;;;6.13;1.52;;;;;;;7.80;80.04;98528.16;6272397;22;20413;-67
2024/01/04 00:15:08;;;;;;;7.13;1.45;;;;;;;7.75;80.26;98528.69;6244912;22;20070;-66
2024/01/04 00:17:35;;;;;;;8.63;1.30;;;;;;;7.75;80.53;98533.25;6273126;22;20023;-66
2024/01/04 00:20:02;;;;;;;3.92;1.13;;;;;;;7.89;79.71;98535.22;6274062;22;20446;-66
2024/01/04 00:22:29;;;;;;;5.93;1.10;;;;;;;7.95;79.28;98534.53;6270783;22;20051;-67
2024/01/04 00:24:55;;;;;;;3.83;1.10;;;;;;;8.08;78.25;98534.84;6272742;22;20027;-66
2024/01/04 00:27:22;;;;;;;4.35;1.25;;;;;;;7.94;78.61;98538.25;6271829;22;20426;-66
2024/01/04 00:29:48;;;;;;;3.92;1.27;;;;;;;7.95;78.69;98537.25;6272611;22;20404;-66
2024/01/04 00:32:15;;;;;;;8.23;1.63;;;;;;;7.90;78.86;98539.59;6271113;22;20035;-66
2024/01/04 00:34:42;;;;;;;5.15;1.33;;;;;;;7.84;79.31;98540.28;6272294;22;20020;-66
2024/01/04 00:37:08;;;;;;;7.05;1.13;;;;;;;7.89;79.01;98537.91;6272048;22;20020;-67
2024/01/04 00:39:35;;;;;;;6.70;1.25;;;;;;;7.72;79.10;98539.81;6272430;22;20034;-66
2024/01/04 00:42:04;;;;;;;4.32;1.20;;;;;;;7.85;78.79;98539.28;6275054;22;20070;-67
2024/01/04 00:44:31;;;;;;;5.65;1.80;;;;;;;7.92;78.82;98545.66;6274294;22;20087;-66
2024/01/04 00:46:57;;;;;;;4.15;1.27;;;;;;;7.87;78.83;98545.34;6260916;22;20030;-67
2024/01/04 00:49:25;;;;;;;7.80;1.55;;;;;;;7.84;78.67;98546.56;6271979;22;20101;-66
2024/01/04 00:51:51;;;;;;;5.95;1.50;;;;;;;7.86;78.56;98549.06;6272175;22;20335;-65
2024/01/04 00:54:19;;;;;;;6.70;1.15;;;;;;;7.94;78.21;98551.75;6272714;22;20353;-66
2024/01/04 00:56:45;;;;;;;5.45;1.65;;;;;;;7.83;78.45;98554.78;6270828;22;20435;-66
2024/01/04 00:59:12;;;;;;;7.97;2.72;;;;;;;7.78;79.02;98557.19;6272171;22;20090;-66
2024/01/04 01:01:39;;;;;;;4.85;1.35;;;;;;;7.95;77.87;98553.44;6271697;22;20069;-68
2024/01/04 01:04:07;;;;;;;7.15;1.17;;;;;;;7.93;77.60;98544.66;6271701;22;20015;-66
2024/01/04 01:06:34;;;;;;;5.00;0.82;;;;;;;8.02;76.75;98540.91;6272876;22;20042;-66
2024/01/04 01:09:03;;;;;;;3.20;0.85;;;;;;;7.99;76.89;98551.22;6273145;22;20019;-67
2024/01/04 01:11:29;;;;;;;3.28;0.85;;;;;;;7.96;76.77;98552.41;6271768;22;20090;-67
2024/01/04 01:13:56;;;;;;;7.18;1.30;;;;;;;7.83;77.20;98557.50;6271583;22;20026;-66
2024/01/04 01:16:23;;;;;;;2.95;0.88;;;;;;;7.82;77.38;98563.91;6253675;22;20482;-66
2024/01/04 01:18:49;;;;;;;5.68;1.10;;;;;;;7.90;76.22;98553.09;6215165;23;20016;-66
2024/01/04 01:21:16;;;;;;;6.28;0.95;;;;;;;7.92;76.73;98553.75;6241606;23;20024;-66
2024/01/04 01:23:42;;;;;;;4.22;0.93;;;;;;;7.86;76.66;98559.88;6242388;23;20526;-67
2024/01/04 01:26:09;;;;;;;3.70;0.77;;;;;;;7.94;75.84;98567.13;6240270;23;20095;-66
2024/01/04 01:28:36;;;;;;;3.38;0.77;;;;;;;7.87;76.41;98556.16;6242404;23;20020;-66
2024/01/04 01:31:02;;;;;;;3.33;0.82;;;;;;;7.86;76.06;98565.25;6216967;23;20024;-67
2024/01/04 01:33:29;;;;;;;3.53;1.02;;;;;;;7.89;76.33;98559.50;6237616;23;20027;-67
2024/01/04 01:35:56;;;;;;;2.53;0.80;;;;;;;8.01;75.49;98557.28;6240215;23;20062;-68
2024/01/04 01:38:23;;;;;;;5.28;0.95;;;;;;;7.86;76.23;98562.56;6240535;23;20020;-67
2024/01/04 01:40:50;;;;;;;3.33;0.80;;;;;;;7.85;76.14;98559.03;6243255;23;20070;-68
2024/01/04 01:43:17;;;;;;;3.75;0.70;;;;;;;7.90;76.04;98552.25;6241153;23;20017;-68
2024/01/04 01:45:45;;;;;;;3.72;1.05;;;;;;;7.95;75.67;98563.41;6241640;23;20020;-67
2024/01/04 01:48:14;;;;;;;2.92;0.82;;;;;;;7.99;75.58;98568.25;6240349;23;20020;-67
2024/01/04 01:50:41;;;;;;;2.25;0.70;;;;;;;8.00;75.09;98569.94;6240530;23;20077;-68
2024/01/04 01:53:08;;;;;;;3.33;0.80;;;;;;;7.89;75.70;98575.72;6241366;23;20024;-67
2024/01/04 01:55:35;;;;;;;3.92;0.80;;;;;;;7.83;75.84;98570.97;6242722;23;20093;-66
2024/01/04 01:58:02;;;;;;;2.47;0.60;;;;;;;7.88;75.98;98579.44;6242843;23;20081;-67
2024/01/04 02:00:29;;;;;;;3.75;0.82;;;;;;;7.90;75.65;98574.69;6241268;23;20016;-67
2024/01/04 02:02:56;;;;;;;6.53;0.73;;;;;;;7.92;75.76;98575.34;6241162;23;20024;-67
2024/01/04 02:09:04;;;;;;;2.67;0.68;;;;;;;7.91;77.08;98583.63;6243223;23;20027;-67
2024/01/04 02:11:31;;;;;;;3.63;0.82;;;;;;;7.84;78.01;98578.94;6242551;23;20092;-67
2024/01/04 02:13:57;;;;;;;5.28;0.85;;;;;;;7.73;79.17;98570.31;6242423;23;20030;-67
2024/01/04 02:16:24;;;;;;;6.45;0.70;;;;;;;7.57;80.03;98577.44;6242608;22;20020;-67
2024/01/04 02:18:50;;;;;;;3.90;0.90;;;;;;;7.69;79.44;98574.38;6241717;23;20024;-67
2024/01/04 02:21:17;;;;;;;3.78;0.70;;;;;;;7.66;79.50;98564.78;6242612;23;20098;-67
2024/01/04 02:23:43;;;;;;;5.88;0.88;;;;;;;7.75;78.60;98569.16;6242747;23;20085;-67
2024/01/04 02:26:10;;;;;;;3.47;1.20;;;;;;;7.69;78.87;98566.28;6241991;23;20473;-67
2024/01/04 02:28:36;;;;;;;3.08;0.70;;;;;;;7.47;79.57;98571.38;6242921;23;20024;-67
2024/01/04 02:31:03;;;;;;;4.05;1.08;;;;;;;7.55;79.58;98571.34;6242086;23;20083;-66
2024/01/04 02:33:30;;;;;;;2.72;0.90;;;;;;;7.54;79.13;98577.75;6241577;23;20350;-67
2024/01/04 02:35:58;;;;;;;1.92;0.73;;;;;;;7.28;79.70;98566.25;6242038;23;20459;-67
2024/01/04 02:38:24;;;;;;;6.30;0.95;;;;;;;7.24;80.50;98581.09;6242458;23;20016;-67
2024/01/04 02:40:52;;;;;;;3.40;0.60;;;;;;;7.42;79.75;98575.56;6241306;23;20451;-66
2024/01/04 02:43:18;;;;;;;5.43;0.70;;;;;;;7.60;78.65;98575.41;6241541;23;20082;-66
2024/01/04 02:45:45;;;;;;;3.92;0.45;;;;;;;7.61;78.43;98577.94;6243108;23;20087;-67
2024/01/04 02:48:12;;;;;;;3.47;0.90;;;;;;;7.68;78.45;98578.94;6242220;23;20091;-67
2024/01/04 02:50:38;;;;;;;3.53;0.68;;;;;;;7.75;78.19;98579.13;6241327;23;20028;-67
2024/01/04 02:53:05;;;;;;;2.95;0.65;;;;;;;7.72;78.79;98592.94;6241299;23;20032;-67
2024/01/04 02:55:31;;;;;;;3.22;0.80;;;;;;;7.69;79.71;98587.88;6241992;23;20076;-67
2024/01/04 02:57:58;;;;;;;3.17;0.80;;;;;;;7.66;80.94;98586.38;6242332;23;20024;-67
2024/01/04 03:00:27;;;;;;;3.20;0.70;;;;;;;7.53;81.93;98594.97;6241886;23;20051;-66
2024/01/04 03:02:53;;;;;;;5.97;0.98;;;;;;;7.49;83.33;98590.91;6242072;23;20024;-66
2024/01/04 03:05:20;;;;;;;2.53;0.52;;;;;;;7.55;83.39;98592.09;6242560;23;20079;-65
2024/01/04 03:07:46;;;;;;;4.32;0.80;;;;;;;7.51;83.94;98588.88;6244918;23;20016;-67
2024/01/04 03:10:13;;;;;;;4.13;0.98;;;;;;;7.29;85.75;98576.88;6216455;23;20640;-67
2024/01/04 03:12:39;;;;;;;4.15;0.82;;;;;;;7.22;86.33;98589.34;6241281;23;20024;-66
2024/01/04 03:15:07;;;;;;;3.67;0.98;;;;;;;7.28;85.95;98585.13;6243141;22;20094;-67
2024/01/04 03:17:36;;;;;;;2.20;0.88;;;;;;;7.04;88.32;98582.41;6243486;23;20020;-67
2024/01/04 03:20:04;;;;;;;2.97;0.88;;;;;;;7.09;88.39;98577.34;6242807;23;20024;-67
2024/01/04 03:22:30;;;;;;;2.25;0.60;;;;;;;6.98;89.49;98587.44;6241202;23;20024;-67
2024/01/04 03:24:57;;;;;;;2.78;0.73;;;;;;;7.00;89.30;98585.44;6239361;23;20458;-67
2024/01/04 03:27:23;;;;;;;7.35;1.73;;;;;;;6.95;89.60;98581.53;6242851;23;20024;-67
2024/01/04 03:29:52;;;;;;;2.40;0.70;;;;;;;6.82;90.67;98587.41;6243588;23;20024;-66
2024/01/04 03:32:18;;;;;;;3.40;0.63;;;;;;;6.98;89.24;98582.03;6242504;23;20355;-66
2024/01/04 03:34:47;;;;;;;3.00;0.73;;;;;;;7.14;87.82;98592.03;6244387;23;20020;-67
2024/01/04 03:37:14;;;;;;;4.30;0.80;;;;;;;7.10;87.91;98584.44;6243674;23;20075;-67
2024/01/04 03:39:40;;;;;;;4.22;0.68;;;;;;;6.98;89.03;98600.91;6243009;23;20016;-67
2024/01/04 03:42:07;;;;;;;4.07;0.75;;;;;;;7.01;89.13;98605.16;6243010;23;20482;-66
2024/01/04 03:44:36;;;;;;;3.38;0.60;;;;;;;6.97;88.72;98595.69;6242298;23;20016;-67
2024/01/04 03:47:04;;;;;;;2.58;0.80;;;;;;;7.08;88.31;98594.53;6216076;23;20036;-67
2024/01/04 03:49:32;;;;;;;4.72;0.82;;;;;;;7.09;88.68;98596.22;6242271;23;20324;-67
2024/01/04 03:51:59;;;;;;;3.67;0.82;;;;;;;7.12;87.98;98598.59;6243315;23;20028;-67
2024/01/04 03:54:26;;;;;;;2.03;0.80;;;;;;;7.12;88.03;98593.22;6244144;23;20473;-66
2024/01/04 03:56:53;;;;;;;2.35;0.70;;;;;;;7.05;88.60;98589.47;6217587;23;20024;-66
2024/01/04 03:59:21;;;;;;;5.50;0.63;;;;;;;7.23;87.07;98590.19;6244316;23;20023;-67
2024/01/04 04:01:48;;;;;;;4.68;0.80;;;;;;;7.17;87.40;98594.38;6244688;23;20024;-67
2024/01/04 04:04:15;;;;;;;1.38;0.60;;;;;;;7.20;87.10;98590.53;6245310;23;20024;-66
2024/01/04 04:06:42;;;;;;;4.47;0.98;;;;;;;7.05;88.00;98587.63;6244839;23;20510;-67
2024/01/04 04:09:08;;;;;;;1.95;0.70;;;;;;;7.04;87.98;98585.94;6244221;23;20040;-67
2024/01/04 04:11:35;;;;;;;1.38;0.60;;;;;;;6.98;88.22;98587.44;6243904;23;20147;-67
2024/01/04 04:14:02;;;;;;;2.85;0.65;;;;;;;6.90;89.18;98592.81;6244578;23;20058;-66
2024/01/04 04:16:28;;;;;;;4.75;1.00;;;;;;;6.98;88.22;98586.59;6244005;22;20074;-67
2024/01/04 04:18:55;;;;;;;2.10;0.57;;;;;;;7.12;87.13;98596.75;6244144;23;20024;-66
2024/01/04 04:21:23;;;;;;;5.88;0.73;;;;;;;7.13;87.01;98598.44;6243700;23;20020;-66
2024/01/04 04:23:50;;;;;;;2.28;0.90;;;;;;;6.98;88.41;98600.06;6243026;23;20030;-65
2024/01/04 04:26:20;;;;;;;1.90;0.80;;;;;;;7.09;87.27;98604.31;6244103;23;20387;-66
2024/01/04 04:28:51;;;;;;;4.60;0.80;;;;;;;7.02;87.62;98603.31;6244053;23;20535;-66
2024/01/04 04:31:19;;;;;;;3.88;0.90;;;;;;;7.04;87.72;98609.38;6242960;23;20074;-66
2024/01/04 04:33:47;;;;;;;4.40;0.77;;;;;;;7.03;87.14;98610.38;6243262;23;20024;-66
2024/01/04 04:36:14;;;;;;;4.50;0.90;;;;;;;7.11;86.77;98613.09;6243084;23;20020;-67
2024/01/04 04:38:41;;;;;;;2.63;0.52;;;;;;;7.05;87.52;98616.44;6242766;23;20078;-67
2024/01/04 04:41:08;;;;;;;2.35;0.80;;;;;;;7.02;88.15;98623.00;6241928;23;20031;-67
2024/01/04 04:43:34;;;;;;;2.28;0.80;;;;;;;7.08;87.61;98624.19;6242727;23;20079;-67
2024/01/04 04:46:04;;;;;;;1.10;0.73;;;;;;;7.04;87.90;98623.69;6242799;23;20398;-67
2024/01/04 04:48:31;;;;;;;3.53;0.88;;;;;;;7.07;87.76;98617.09;6242288;23;20455;-67
2024/01/04 04:50:58;;;;;;;2.13;0.75;;;;;;;7.04;88.41;98622.84;6242171;23;20024;-67
2024/01/04 04:53:24;;;;;;;2.80;0.93;;;;;;;6.99;88.26;98620.63;6242157;23;20043;-67
2024/01/04 04:55:51;;;;;;;2.28;1.02;;;;;;;7.10;87.70;98627.59;6242285;23;20355;-66
2024/01/04 04:58:18;;;;;;;3.03;1.33;;;;;;;7.09;87.57;98634.81;6244795;23;20079;-67
2024/01/04 05:00:46;;;;;;;1.58;0.75;;;;;;;7.12;87.84;98630.94;6243613;23;20384;-67
2024/01/04 05:03:12;;;;;;;3.75;0.77;;;;;;;7.04;88.33;98634.47;6243253;23;20490;-67
2024/01/04 05:05:39;;;;;;;4.30;0.90;;;;;;;6.80;89.25;98643.28;6243115;23;20024;-67
2024/01/04 05:08:06;;;;;;;2.00;0.82;;;;;;;6.96;89.02;98642.53;6243004;23;20031;-67
2024/01/04 05:10:32;;;;;;;5.72;1.67;;;;;;;7.08;88.42;98649.28;6242940;23;20024;-67
2024/01/04 05:12:59;;;;;;;4.07;1.77;;;;;;;7.05;88.93;98651.47;6243886;23;20525;-66
2024/01/04 05:15:26;;;;;;;1.30;0.70;;;;;;;7.09;88.08;98653.66;6243088;22;20024;-67
2024/01/04 05:17:53;;;;;;;4.22;1.10;;;;;;;7.08;88.26;98653.84;6242915;23;20082;-67
2024/01/04 05:20:20;;;;;;;4.88;1.35;;;;;;;7.03;88.47;98659.75;6242524;23;20354;-66
2024/01/04 05:22:48;;;;;;;4.03;1.35;;;;;;;6.90;89.39;98659.34;6243660;23;20020;-67
2024/01/04 05:25:14;;;;;;;6.45;1.35;;;;;;;6.94;88.65;98669.66;6243755;23;20013;-67
2024/01/04 05:27:42;;;;;;;3.15;1.20;;;;;;;6.99;88.61;98667.28;6243184;23;20024;-67
2024/01/04 05:30:12;;;;;;;4.30;1.48;;;;;;;7.00;88.95;98666.31;6243148;23;20094;-67
2024/01/04 05:32:39;;;;;;;3.75;1.40;;;;;;;6.98;89.03;98681.78;6242667;23;20427;-67
2024/01/04 05:35:06;;;;;;;1.80;1.35;;;;;;;7.03;88.60;98677.75;6242835;23;20024;-67
2024/01/04 05:37:33;;;;;;;4.00;1.38;;;;;;;7.10;88.15;98668.03;6243343;23;20371;-66
2024/01/04 05:39:59;;;;;;;3.70;1.27;;;;;;;7.16;87.80;98673.56;6242683;23;20031;-67
2024/01/04 05:42:27;;;;;;;3.63;1.42;;;;;;;7.08;88.17;98678.09;6243812;23;20398;-67
2024/01/04 05:44:53;;;;;;;4.18;1.35;;;;;;;7.07;88.45;98689.91;6243466;23;20059;-67
2024/01/04 05:47:20;;;;;;;3.15;1.33;;;;;;;7.00;88.64;98682.47;6243596;23;20079;-67
2024/01/04 05:49:47;;;;;;;5.10;1.60;;;;;;;7.11;87.85;98692.13;6244320;23;20366;-67
2024/01/04 05:52:13;;;;;;;7.53;1.77;;;;;;;6.95;89.36;98692.03;6243255;23;20020;-66
2024/01/04 05:54:40;;;;;;;2.80;1.50;;;;;;;7.00;88.89;98689.69;6243203;23;20024;-66
2024/01/04 05:57:07;;;;;;;3.30;1.30;;;;;;;6.97;88.94;98688.16;6244011;23;20078;-66
2024/01/04 05:59:34;;;;;;;2.58;1.17;;;;;;;6.84;89.62;98693.19;6243190;23;20016;-67
2024/01/04 06:02:00;;;;;;;4.63;1.40;;;;;;;6.89;89.48;98698.06;6243102;23;20024;-67
2024/01/04 06:04:27;;;;;;;4.93;2.40;;;;;;;6.85;89.68;98696.72;6242270;23;20016;-65
2024/01/04 06:06:54;;;;;;;5.05;1.73;;;;;;;6.80;89.60;98696.34;6241643;23;20031;-65
2024/01/04 06:09:21;;;;;;;6.43;2.03;;;;;;;6.80;89.36;98713.34;6242122;23;20024;-65
2024/01/04 06:11:50;;;;;;;5.20;1.52;;;;;;;6.86;88.87;98717.28;6242921;23;20020;-65
2024/01/04 06:14:18;;;;;;;4.30;1.80;;;;;;;6.84;89.10;98712.03;6243569;23;20058;-65
2024/01/04 06:16:45;;;;;;;4.90;2.05;;;;;;;6.72;89.92;98718.69;6242398;22;20020;-65
2024/01/04 06:19:11;;;;;;;3.60;1.50;;;;;;;6.87;88.90;98725.19;6242224;23;20710;-65
2024/01/04 06:21:38;;;;;;;2.30;1.30;;;;;;;6.88;88.94;98732.25;6242298;23;20032;-65
2024/01/04 06:24:05;;;;;;;5.57;1.50;;;;;;;6.74;89.70;98724.78;6242865;23;20068;-65
2024/01/04 06:26:32;;;;;;;3.20;1.70;;;;;;;6.76;89.95;98733.56;6242855;23;20040;-65
2024/01/04 06:28:59;;;;;;;5.75;1.70;;;;;;;6.75;89.41;98737.25;6243277;23;20366;-65
2024/01/04 06:31:26;;;;;;;3.70;1.70;;;;;;;6.70;89.72;98739.56;6242897;23;20024;-65
2024/01/04 06:33:53;;;;;;;2.30;1.50;;;;;;;6.78;89.41;98757.66;6242366;23;20082;-66
2024/01/04 06:36:20;;;;;;;5.35;1.90;;;;;;;6.70;89.98;98756.59;6241781;23;20403;-65
2024/01/04 06:38:47;;;;;;;4.90;1.40;;;;;;;6.77;87.66;98756.81;6243870;23;20040;-65
2024/01/04 06:41:14;;;;;;;1.55;1.08;;;;;;;6.63;88.71;98760.06;6243218;23;20044;-65
2024/01/04 06:43:40;;;;;;;3.58;1.40;;;;;;;6.48;89.70;98767.06;6241788;23;20016;-65
2024/01/04 06:46:07;;;;;;;2.97;1.30;;;;;;;6.50;88.87;98765.03;6241813;23;20031;-65
2024/01/04 06:48:37;;;;;;;2.50;1.10;;;;;;;6.38;89.39;98776.06;6241953;23;20044;-65
2024/01/04 06:51:04;;;;;;;3.33;1.55;;;;;;;6.36;89.76;98780.78;6241378;23;20332;-65
2024/01/04 06:53:30;;;;;;;5.45;1.20;;;;;;;6.37;89.16;98781.63;6242097;23;20028;-65
2024/01/04 06:55:57;;;;;;;2.78;0.95;;;;;;;6.06;91.55;98784.69;6242329;23;20089;-64
2024/01/04 06:58:23;;;;;;;3.08;1.25;;;;;;;6.19;90.66;98789.72;6241973;23;20059;-64
2024/01/04 07:00:50;;;;;;;4.72;1.23;;;;;;;6.23;90.29;98801.00;6242372;23;20020;-64
2024/01/04 07:03:19;;;;;;;4.97;1.30;;;;;;;6.20;89.55;98814.78;6242830;23;20020;-64
2024/01/04 07:05:46;;;;;;;1.85;1.10;;;;;;;6.06;90.59;98803.53;6241903;23;20370;-64
2024/01/04 07:08:13;;;;;;;8.98;1.50;;;;;;;6.09;90.69;98815.88;6242225;23;20090;-65
2024/01/04 07:10:40;;;;;;;1.85;0.80;;;;;;;6.07;89.94;98812.47;6242486;23;20161;-64
2024/01/04 07:13:07;;;;;;;3.67;1.15;;;;;;;6.01;89.74;98829.25;6241889;23;20095;-64
2024/01/04 07:15:34;;;;;;;0.65;0.50;;;;;;;5.98;90.13;98830.41;6241128;22;20342;-65
2024/01/04 07:18:00;;;;;;;1.90;0.70;;;;;;;5.81;89.11;98840.16;6242094;23;20039;-65
2024/01/04 07:20:27;;;;;;;1.85;0.60;;;;;;;5.88;88.80;98855.66;6242394;23;20020;-64
2024/01/04 07:22:54;;;;;;;1.58;0.70;;;;;;;5.76;89.62;98853.19;6241846;23;20481;-65
2024/01/04 07:25:22;;;;;;;0.80;0.50;;;;;;;5.78;87.83;98844.97;6242120;23;20469;-65
2024/01/04 07:27:49;;;;;;;1.80;0.60;;;;;;;5.67;86.94;98853.25;6242477;23;20016;-64
2024/01/04 07:30:16;;;;;;;2.72;0.50;;;;;;;5.59;87.47;98862.06;6241845;23;20098;-65
2024/01/04 07:32:43;;;;;;;1.00;0.43;;;;;;;5.50;83.30;98863.78;6241392;23;20026;-65
2024/01/04 07:35:12;;;;;;;0.50;0.30;;;;;;;5.43;83.47;98864.56;6215580;23;20098;-65
2024/01/04 07:37:44;;;;;;;2.30;0.40;;;;;;;5.32;82.96;98872.78;6241753;23;20089;-65
2024/01/04 07:40:13;;;;;;;0.75;0.57;;;;;;;5.28;83.90;98874.94;6241311;23;20024;-65
2024/01/04 07:42:40;;;;;;;2.20;0.68;;;;;;;5.18;83.82;98880.34;6242038;23;20031;-64
2024/01/04 07:45:07;;;;;;;5.40;1.10;;;;;;;5.11;84.02;98889.97;6240514;23;20020;-65
2024/01/04 07:47:37;;;;;;;0.50;0.40;;;;;;;5.13;84.35;98876.41;6241296;23;20024;-65
2024/01/04 07:50:05;;;;;;;1.10;0.60;;;;;;;5.08;84.48;98894.81;6241706;23;20455;-65
2024/01/04 07:52:32;;;;;;;1.02;0.80;;;;;;;5.11;83.88;98884.59;6241120;23;20067;-65
2024/01/04 07:54:59;;;;;;;3.17;1.00;;;;;;;5.06;83.88;98889.59;6240877;23;20024;-64
2024/01/04 07:57:31;;;;;;;2.20;0.65;;;;;;;5.09;83.94;98886.59;6241777;23;20470;-64
2024/01/04 07:59:57;;;;;;;4.40;0.80;;;;;;;5.13;84.04;98881.78;6242178;23;20028;-64
2024/01/04 08:02:28;;;;;;;1.15;0.65;;;;;;;5.05;83.40;98879.84;6241446;23;20020;-64
2024/01/04 08:04:56;;;;;;;2.47;0.50;;;;;;;4.88;84.93;98888.59;6241500;23;20474;-64
2024/01/04 08:07:22;;;;;;;2.20;0.70;;;;;;;5.04;84.41;98909.50;6215201;23;20246;-64
2024/01/04 08:09:49;;;;;;;1.13;0.45;;;;;;;5.06;83.76;98908.41;6243125;23;20363;-64
2024/01/04 08:12:16;;;;;;;0.43;0.30;;;;;;;5.01;83.76;98905.28;6242431;23;20075;-64
2024/01/04 08:14:42;;;;;;;1.92;0.93;;;;;;;4.90;85.18;98913.47;6241759;23;20020;-64
2024/01/04 08:17:09;;;;;;;2.35;0.77;;;;;;;4.81;86.33;98908.97;6241166;22;20020;-64
2024/01/04 08:19:36;;;;;;;8.27;3.42;;;;;;;4.89;86.01;98922.53;6241201;23;20030;-65
2024/01/04 08:22:03;;;;;;;5.55;1.30;;;;;;;4.94;85.65;98921.13;6241561;23;20103;-64
2024/01/04 08:24:30;;;;;;;3.47;1.00;;;;;;;4.92;86.30;98922.28;6240740;23;20094;-63
2024/01/04 08:26:57;;;;;;;2.20;0.60;;;;;;;5.02;85.71;98917.72;6241831;23;20099;-66
2024/01/04 08:29:24;;;;;;;4.88;0.85;;;;;;;5.02;85.21;98931.16;6241409;23;20473;-65
2024/01/04 08:31:51;;;;;;;6.82;1.00;;;;;;;4.95;85.95;98917.44;6243054;23;20086;-66
2024/01/04 08:34:18;;;;;;;1.58;0.60;;;;;;;4.91;84.92;98928.63;6243377;23;20026;-65
2024/01/04 08:36:45;;;;;;;2.88;0.70;;;;;;;4.98;85.65;98925.25;6242657;23;20020;-65
2024/01/04 08:39:11;;;;;;;1.85;0.60;;;;;;;5.01;83.72;98934.84;6242598;23;20100;-65
2024/01/04 08:41:38;;;;;;;3.03;0.70;;;;;;;4.94;84.89;98941.78;6243398;23;20024;-65
2024/01/04 08:44:05;;;;;;;3.08;0.60;;;;;;;4.98;84.16;98945.88;6242753;23;20031;-65
2024/01/04 08:46:37;;;;;;;2.20;0.50;;;;;;;4.96;84.10;98946.03;6243444;23;20090;-65
2024/01/04 08:49:04;;;;;;;1.35;0.60;;;;;;;4.88;84.35;98953.09;6243478;23;20099;-65
2024/01/04 08:51:33;;;;;;;1.63;0.60;;;;;;;4.84;84.11;98955.19;6243048;23;20020;-65
2024/01/04 08:53:59;;;;;;;2.17;0.57;;;;;;;4.82;84.92;98967.06;6242831;23;20028;-65
2024/01/04 08:56:26;;;;;;;2.55;0.32;;;;;;;4.79;85.47;98964.69;6242493;23;20407;-66
2024/01/04 08:58:52;;;;;;;2.58;0.43;;;;;;;4.82;85.60;98969.75;6243986;23;20068;-65
2024/01/04 09:01:19;;;;;;;1.05;0.30;;;;;;;4.69;84.91;98983.47;6244255;23;20390;-65
2024/01/04 09:03:48;;;;;;;0.32;0.20;;;;;;;4.54;83.47;98988.41;6243124;23;20039;-64
2024/01/04 09:06:16;;;;;;;0.20;0.20;;;;;;;4.49;83.85;98995.16;6243680;23;20127;-65
2024/01/04 09:08:42;;;;;;;1.00;0.60;;;;;;;4.49;84.50;98988.00;6243206;23;20072;-64
2024/01/04 09:11:09;;;;;;;0.45;0.20;;;;;;;4.47;84.87;98999.84;6243634;23;20078;-65
2024/01/04 09:13:36;;;;;;;0.60;0.55;;;;;;;4.55;84.56;99011.56;6244108;23;20039;-64
2024/01/04 09:16:03;;;;;;;4.13;0.60;;;;;;;4.56;85.10;99001.69;6243212;22;20102;-65
2024/01/04 09:18:33;;;;;;;1.40;0.50;;;;;;;4.60;83.19;99014.72;6243100;23;20458;-65
2024/01/04 09:20:59;;;;;;;0.30;0.30;;;;;;;4.43;82.46;99018.91;6242596;23;20024;-65
2024/01/04 09:23:26;;;;;;;0.85;0.40;;;;;;;4.32;83.42;99020.88;6243094;23;20035;-64
2024/01/04 09:25:52;;;;;;;0.73;0.57;;;;;;;4.34;83.08;99027.78;6244219;23;20039;-65
2024/01/04 09:28:22;;;;;;;1.15;0.70;;;;;;;4.33;81.91;99036.00;6244241;23;20020;-65
2024/01/04 09:30:48;;;;;;;1.35;0.77;;;;;;;4.31;82.72;99037.97;6244081;23;20020;-65
2024/01/04 09:33:15;;;;;;;1.75;1.00;;;;;;;4.28;82.63;99046.28;6243997;23;20020;-65
2024/01/04 09:35:42;;;;;;;0.80;0.55;;;;;;;4.33;80.92;99044.03;6243051;23;20026;-64
2024/01/04 09:38:09;;;;;;;2.70;0.50;;;;;;;4.28;80.48;99036.38;6243284;23;20094;-65
2024/01/04 09:40:35;;;;;;;1.52;0.65;;;;;;;4.18;80.39;99040.88;6243772;23;20024;-65
2024/01/04 09:43:03;;;;;;;0.70;0.50;;;;;;;4.36;80.68;99049.97;6243781;23;20458;-65
2024/01/04 09:45:32;;;;;;;2.03;0.57;;;;;;;4.36;80.83;99044.59;6243966;23;20020;-65
2024/01/04 09:48:00;;;;;;;0.60;0.40;;;;;;;4.34;80.21;99049.25;6217685;23;20028;-65
2024/01/04 09:50:27;;;;;;;7.72;0.60;;;;;;;4.30;80.43;99055.03;6244131;23;20055;-65
2024/01/04 09:52:56;;;;;;;0.70;0.60;;;;;;;4.40;80.78;99054.09;6246377;23;20024;-65
2024/01/04 09:55:25;;;;;;;1.10;0.30;;;;;;;4.43;79.59;99050.28;6245583;23;20044;-64
2024/01/04 09:57:52;;;;;;;1.10;0.47;;;;;;;4.37;79.87;99056.19;6245367;23;20024;-66
2024/01/04 10:00:19;;;;;;;1.98;0.60;;;;;;;4.27;78.11;99049.94;6245609;23;20051;-67
2024/01/04 10:02:49;;;;;;;2.63;0.52;;;;;;;4.20;82.06;99067.56;6244736;23;20020;-67
2024/01/04 10:05:18;;;;;;;1.35;0.55;;;;;;;4.20;80.00;99067.56;6245131;23;20480;-65
2024/01/04 10:08:19;;;;;;;2.80;0.60;;;;;;;4.12;81.49;99079.84;6244578;23;20024;-67
2024/01/04 10:10:45;;;;;;;2.50;0.30;;;;;;;4.22;81.62;99087.09;6244752;23;20028;-67
2024/01/04 10:13:13;;;;;;;1.85;0.30;;;;;;;4.30;80.31;99087.25;6244059;23;20383;-67
2024/01/04 10:15:42;;;;;;;0.55;0.40;;;;;;;4.22;78.25;99096.00;6244623;22;20424;-67
2024/01/04 10:18:12;;;;;;;0.60;0.30;;;;;;;4.12;79.36;99093.28;6244067;23;20024;-66
2024/01/04 10:20:39;;;;;;;1.57;0.50;;;;;;;4.08;80.47;99099.88;6245387;23;20024;-66
2024/01/04 10:23:07;;;;;;;1.08;0.40;;;;;;;4.14;80.59;99106.53;6244377;23;20477;-67
2024/01/04 10:25:34;;;;;;;2.92;0.82;;;;;;;4.24;80.75;99114.63;6244313;23;20027;-67
2024/01/04 10:28:01;;;;;;;1.88;0.40;;;;;;;4.05;80.42;99110.03;6242997;23;20098;-65
2024/01/04 10:30:29;;;;;;;2.00;0.63;;;;;;;4.11;78.88;99112.16;6242219;23;20539;-67
2024/01/04 10:32:55;;;;;;;2.55;0.70;;;;;;;4.11;78.49;99114.84;6241947;23;20391;-67
2024/01/04 10:35:27;;;;;;;3.03;0.90;;;;;;;4.15;77.48;99116.28;6243256;23;20138;-67
2024/01/04 10:38:00;;;;;;;0.93;0.30;;;;;;;4.08;77.46;99121.34;6243834;23;20362;-67
2024/01/04 10:40:27;;;;;;;3.70;0.60;;;;;;;4.02;76.39;99126.38;6242128;23;20092;-66
2024/01/04 10:42:58;;;;;;;1.70;0.50;;;;;;;3.90;76.69;99133.66;6241771;23;20020;-66
2024/01/04 10:45:29;;;;;;;1.10;0.50;;;;;;;3.94;76.84;99135.13;6242989;23;20023;-67
2024/01/04 10:47:56;;;;;;;0.88;0.50;;;;;;;3.78;76.41;99137.41;6242582;23;20025;-66
2024/01/04 10:50:24;;;;;;;1.65;0.47;;;;;;;3.84;75.94;99137.72;6243627;23;20016;-67
2024/01/04 10:52:57;;;;;;;2.30;0.32;;;;;;;3.81;75.79;99148.72;6243778;23;20016;-66
2024/01/04 10:55:24;;;;;;;4.32;0.73;;;;;;;3.80;76.03;99148.84;6242726;23;20069;-66
2024/01/04 10:57:52;;;;;;;2.00;0.60;;;;;;;3.75;74.96;99161.81;6242400;23;20026;-66
2024/01/04 11:00:19;;;;;;;1.48;0.50;;;;;;;3.76;76.01;99158.16;6243180;23;20027;-66
2024/01/04 11:02:49;;;;;;;2.58;0.50;;;;;;;3.77;74.23;99149.13;6243261;23;20470;-66
2024/01/04 11:05:17;;;;;;;0.25;0.25;;;;;;;3.76;74.19;99163.50;6242381;23;20110;-66
2024/01/04 11:07:45;;;;;;;0.40;0.40;;;;;;;3.76;75.10;99164.34;6242103;23;20020;-66
2024/01/04 11:10:14;;;;;;;0.93;0.40;;;;;;;3.78;74.43;99162.38;6242227;23;20028;-66
2024/01/04 11:12:44;;;;;;;2.38;0.50;;;;;;;3.74;75.50;99163.59;6241680;23;20097;-66
2024/01/04 11:15:14;;;;;;;1.10;0.52;;;;;;;3.73;74.76;99163.75;6241148;22;20045;-65
2024/01/04 11:17:46;;;;;;;0.90;0.50;;;;;;;3.68;75.53;99166.84;6241684;23;20321;-67
2024/01/04 11:20:22;;;;;;;1.60;0.30;;;;;;;3.74;74.87;99165.44;6241515;23;20020;-67
2024/01/04 11:23:22;;;;;;;0.82;0.40;;;;;;;3.75;74.11;99167.19;6241823;23;20020;-65
2024/01/04 11:26:01;;;;;;;0.77;0.30;;;;;;;3.61;74.82;99172.84;6240830;23;20024;-65
2024/01/04 11:28:28;;;;;;;0.55;0.30;;;;;;;3.57;74.09;99175.78;6241717;23;20024;-65
2024/01/04 11:31:06;;;;;;;0.57;0.30;;;;;;;3.55;74.74;99185.75;6241783;23;20463;-65
2024/01/04 11:33:38;;;;;;;0.55;0.30;;;;;;;3.52;73.41;99185.19;6241323;23;20075;-66
2024/01/04 11:36:05;;;;;;;1.10;0.43;;;;;;;3.49;74.11;99175.56;6240939;23;20024;-65
2024/01/04 11:38:35;;;;;;;1.50;0.60;;;;;;;3.48;74.35;99183.75;6241723;23;20075;-66
2024/01/04 11:41:02;;;;;;;1.15;0.80;;;;;;;3.53;74.55;99184.19;6240656;23;20031;-66
2024/01/04 11:43:39;;;;;;;2.50;0.40;;;;;;;3.46;74.41;99183.84;6240724;23;20016;-66
2024/01/04 11:46:19;;;;;;;1.85;0.50;;;;;;;3.33;74.05;99209.97;6241255;23;20130;-66